Time;durP1;ratioP1;P1;durP2;ratioP2;P2;SDS_P1;SDS_P2;PMS_P1;PMS_P2;Temp;Humidity;BMP_temperature;BMP_pressure;BME280_temperature;BME280_humidity;BME280_pressure;Samples;Min_cycle;Max_cycle;Signal;HPM_P1;HPM_P2
2021/05/25 00:00:57;;;;;;;3.50;2.38;;;;;;;14.46;100.00;100192.47;5057816;28;20037;-73
2021/05/25 00:03:23;;;;;;;7.10;2.33;;;;;;;14.31;100.00;100196.38;5069058;28;20047;-73
2021/05/25 00:05:49;;;;;;;7.30;2.80;;;;;;;14.51;100.00;100188.56;5062552;28;20465;-72
2021/05/25 00:08:15;;;;;;;6.72;2.78;;;;;;;14.25;100.00;100180.88;5060374;28;20052;-73
2021/05/25 00:10:40;;;;;;;4.45;2.88;;;;;;;14.27;100.00;100178.53;5064278;28;20025;-73
2021/05/25 00:13:06;;;;;;;4.22;2.80;;;;;;;14.36;100.00;100176.25;5057542;28;20495;-73
2021/05/25 00:15:33;;;;;;;5.03;2.30;;;;;;;14.34;100.00;100184.00;5065659;28;20039;-73
2021/05/25 00:18:00;;;;;;;5.68;2.30;;;;;;;14.50;100.00;100180.84;5059414;28;20028;-73
2021/05/25 00:20:26;;;;;;;3.00;2.42;;;;;;;14.46;100.00;100184.31;5064144;28;20037;-73
2021/05/25 00:22:53;;;;;;;7.30;2.15;;;;;;;13.97;100.00;100180.94;5058446;28;20060;-73
2021/05/25 00:25:20;;;;;;;7.60;2.20;;;;;;;13.86;100.00;100180.94;5066769;28;20451;-73
2021/05/25 00:27:46;;;;;;;2.42;1.90;;;;;;;14.10;100.00;100163.88;5065304;28;20043;-73
2021/05/25 00:30:14;;;;;;;2.53;2.00;;;;;;;13.98;100.00;100168.94;5069941;28;20099;-73
2021/05/25 00:32:41;;;;;;;3.50;2.13;;;;;;;13.90;100.00;100164.72;5070234;28;20404;-73
2021/05/25 00:35:07;;;;;;;2.85;1.80;;;;;;;13.88;100.00;100167.78;5069792;28;20047;-73
2021/05/25 00:37:33;;;;;;;3.45;1.92;;;;;;;13.82;100.00;100161.22;5073125;28;20024;-73
2021/05/25 00:39:58;;;;;;;2.28;1.80;;;;;;;14.00;100.00;100156.56;5074700;28;20036;-73
2021/05/25 00:42:24;;;;;;;4.30;1.70;;;;;;;14.03;100.00;100153.06;5066857;28;20049;-73
2021/05/25 00:44:49;;;;;;;2.38;1.92;;;;;;;14.07;100.00;100158.50;5064762;28;20024;-73
2021/05/25 00:47:15;;;;;;;1.95;1.77;;;;;;;13.91;100.00;100148.06;5067572;28;20123;-73
2021/05/25 00:49:40;;;;;;;2.45;2.00;;;;;;;13.97;100.00;100151.94;5059909;28;20037;-73
2021/05/25 00:52:06;;;;;;;2.28;1.92;;;;;;;13.85;100.00;100141.50;5066527;28;20074;-73
2021/05/25 00:54:32;;;;;;;2.47;1.98;;;;;;;13.83;100.00;100146.53;5061398;28;20462;-73
2021/05/25 00:56:58;;;;;;;5.90;2.05;;;;;;;13.85;100.00;100144.22;5076096;28;20048;-73
2021/05/25 00:59:28;;;;;;;5.65;2.45;;;;;;;13.83;100.00;100145.75;5060470;28;20139;-73
2021/05/25 01:01:53;;;;;;;2.70;2.13;;;;;;;13.96;100.00;100136.84;5069145;28;20035;-73
2021/05/25 01:04:19;;;;;;;2.70;2.10;;;;;;;13.77;100.00;100145.38;5067190;28;20040;-73
2021/05/25 01:06:44;;;;;;;3.65;1.65;;;;;;;13.65;100.00;100134.16;5056268;28;20029;-73
2021/05/25 01:09:11;;;;;;;3.60;1.70;;;;;;;13.63;100.00;100134.56;5064449;28;20045;-73
2021/05/25 01:11:39;;;;;;;1.90;1.70;;;;;;;13.77;100.00;100134.53;5075437;28;20116;-73
2021/05/25 01:14:05;;;;;;;2.70;2.03;;;;;;;14.24;100.00;100131.38;5062751;28;20374;-73
2021/05/25 01:16:31;;;;;;;2.30;2.10;;;;;;;14.08;100.00;100125.59;5071529;28;20037;-73
2021/05/25 01:18:57;;;;;;;2.40;1.90;;;;;;;13.99;100.00;100125.25;5054939;28;20067;-73
2021/05/25 01:21:25;;;;;;;2.55;1.90;;;;;;;14.05;100.00;100122.91;5064150;28;20112;-72
2021/05/25 01:23:51;;;;;;;2.90;1.90;;;;;;;13.93;100.00;100121.38;5072572;28;20024;-72
2021/05/25 01:26:18;;;;;;;2.33;1.50;;;;;;;13.96;100.00;100131.41;5069592;28;20040;-73
2021/05/25 01:28:48;;;;;;;2.33;1.58;;;;;;;13.56;100.00;100129.16;5072373;28;20035;-72
2021/05/25 01:31:14;;;;;;;4.88;1.80;;;;;;;13.67;100.00;100127.22;5067542;28;20044;-73
2021/05/25 01:33:40;;;;;;;3.42;1.80;;;;;;;13.94;100.00;100127.56;5074144;28;20130;-73
2021/05/25 01:36:12;;;;;;;3.00;1.60;;;;;;;13.40;100.00;100131.47;5061823;28;20490;-73
2021/05/25 01:38:38;;;;;;;3.05;1.70;;;;;;;13.69;100.00;100124.88;5069689;28;20028;-73
2021/05/25 01:41:06;;;;;;;2.67;1.50;;;;;;;13.81;100.00;100127.19;5065506;28;20036;-73
2021/05/25 01:43:31;;;;;;;3.20;1.85;;;;;;;13.91;100.00;100128.34;5071624;28;20067;-73
2021/05/25 01:45:57;;;;;;;4.47;1.90;;;;;;;13.73;100.00;100122.94;5067832;28;20489;-73
2021/05/25 01:48:23;;;;;;;4.13;1.80;;;;;;;13.67;100.00;100132.63;5058009;28;20043;-72
2021/05/25 01:50:49;;;;;;;2.33;1.60;;;;;;;13.44;100.00;100135.72;5067261;28;20016;-73
2021/05/25 01:53:17;;;;;;;2.15;1.50;;;;;;;13.63;100.00;100129.13;5072485;28;20044;-73
2021/05/25 01:55:51;;;;;;;1.52;1.40;;;;;;;13.61;100.00;100136.13;5072554;28;20519;-73
2021/05/25 01:58:26;;;;;;;3.80;1.73;;;;;;;13.41;100.00;100136.47;5060873;28;20033;-72
2021/05/25 02:00:55;;;;;;;3.45;1.98;;;;;;;13.14;100.00;100134.53;5066094;28;20119;-72
2021/05/25 02:03:21;;;;;;;2.72;1.67;;;;;;;13.01;100.00;100146.84;5068762;28;20033;-73
2021/05/25 02:05:47;;;;;;;3.33;1.80;;;;;;;12.93;100.00;100140.63;5066954;28;20036;-72
2021/05/25 02:08:13;;;;;;;3.78;1.80;;;;;;;13.17;100.00;100139.97;5069630;28;20103;-73
2021/05/25 02:10:50;;;;;;;4.78;2.13;;;;;;;13.25;100.00;100132.63;5062929;28;20481;-73
2021/05/25 02:13:19;;;;;;;3.40;2.30;;;;;;;13.54;100.00;100131.47;5060540;28;20032;-73
2021/05/25 02:15:47;;;;;;;4.15;1.95;;;;;;;13.51;100.00;100137.66;5055826;28;20044;-73
2021/05/25 02:18:18;;;;;;;3.78;2.10;;;;;;;13.75;100.00;100142.28;5066622;28;20056;-73
2021/05/25 02:20:45;;;;;;;4.45;2.40;;;;;;;13.34;100.00;100146.53;5066160;28;20153;-73
2021/05/25 02:23:11;;;;;;;3.13;2.20;;;;;;;13.09;100.00;100132.22;5071830;28;20032;-72
2021/05/25 02:25:38;;;;;;;4.35;2.00;;;;;;;13.37;100.00;100132.25;5062968;28;20032;-73
2021/05/25 02:28:05;;;;;;;5.65;2.13;;;;;;;13.13;100.00;100130.28;5063891;28;20041;-73
2021/05/25 02:30:32;;;;;;;3.38;2.38;;;;;;;13.31;100.00;100131.09;5068455;28;20115;-73
2021/05/25 02:33:00;;;;;;;2.47;2.28;;;;;;;13.20;100.00;100128.34;5064599;28;20025;-72
2021/05/25 02:35:25;;;;;;;3.20;2.35;;;;;;;13.44;100.00;100118.72;5069860;28;20040;-73
2021/05/25 02:37:51;;;;;;;3.97;2.28;;;;;;;13.26;100.00;100112.53;5053689;28;20082;-73
2021/05/25 02:40:16;;;;;;;3.53;2.10;;;;;;;13.03;100.00;100125.59;5065983;28;20420;-72
2021/05/25 02:42:42;;;;;;;4.85;2.38;;;;;;;12.83;100.00;100114.38;5069894;28;20037;-73
2021/05/25 02:45:08;;;;;;;4.18;2.25;;;;;;;13.15;100.00;100109.03;5071582;28;20060;-73
2021/05/25 02:47:34;;;;;;;2.50;1.95;;;;;;;13.39;100.00;100108.28;5058630;28;20036;-72
2021/05/25 02:50:06;;;;;;;3.20;2.30;;;;;;;13.31;100.00;100102.13;5068558;28;20032;-73
2021/05/25 02:52:33;;;;;;;3.40;2.00;;;;;;;12.90;100.00;100108.22;5064650;28;20316;-73
2021/05/25 02:54:58;;;;;;;2.90;2.50;;;;;;;12.89;100.00;100109.38;5067221;28;20042;-73
2021/05/25 02:57:24;;;;;;;3.53;2.20;;;;;;;12.89;100.00;100112.09;5058904;28;20033;-73
2021/05/25 02:59:49;;;;;;;2.38;2.17;;;;;;;12.89;100.00;100112.09;5063758;28;20453;-73
2021/05/25 03:02:15;;;;;;;2.58;2.25;;;;;;;13.18;100.00;100116.41;5061188;28;20083;-72
2021/05/25 03:04:40;;;;;;;3.13;2.30;;;;;;;13.33;100.00;100123.34;5062781;28;20037;-72
2021/05/25 03:07:06;;;;;;;4.10;2.20;;;;;;;13.30;100.00;100130.31;5064932;28;20035;-73
2021/05/25 03:09:31;;;;;;;4.78;2.55;;;;;;;13.33;100.00;100132.25;5064466;28;20454;-73
2021/05/25 03:11:56;;;;;;;3.83;2.13;;;;;;;13.40;100.00;100132.25;5069238;28;20462;-73
2021/05/25 03:14:23;;;;;;;2.45;2.13;;;;;;;12.97;100.00;100132.56;5070922;28;20516;-73
2021/05/25 03:16:49;;;;;;;3.80;2.60;;;;;;;13.07;100.00;100134.53;5064260;28;20029;-73
2021/05/25 03:19:15;;;;;;;3.85;2.40;;;;;;;13.24;100.00;100125.69;5068814;28;20025;-73
2021/05/25 03:21:40;;;;;;;4.10;2.40;;;;;;;13.35;100.00;100134.56;5066589;28;20147;-73
2021/05/25 03:24:06;;;;;;;4.30;2.58;;;;;;;13.14;100.00;100129.88;5068992;28;20397;-73
2021/05/25 03:26:31;;;;;;;4.45;2.38;;;;;;;13.19;100.00;100147.69;5061150;28;20421;-73
2021/05/25 03:28:57;;;;;;;4.32;2.13;;;;;;;13.34;100.00;100141.13;5057155;28;20029;-73
2021/05/25 03:31:22;;;;;;;3.03;2.42;;;;;;;13.01;100.00;100152.25;5055605;28;20045;-73
2021/05/25 03:33:48;;;;;;;2.83;2.53;;;;;;;13.17;100.00;100148.06;5062841;28;20028;-73
2021/05/25 03:36:13;;;;;;;5.60;2.67;;;;;;;13.08;100.00;100136.88;5065327;28;20036;-72
2021/05/25 03:38:39;;;;;;;3.47;2.40;;;;;;;13.21;100.00;100145.38;5050268;28;20032;-73
2021/05/25 03:41:04;;;;;;;6.35;2.53;;;;;;;13.47;100.00;100150.41;5054152;28;20035;-73
2021/05/25 03:43:30;;;;;;;3.05;2.50;;;;;;;13.24;100.00;100147.31;5060659;28;20037;-73
2021/05/25 03:45:55;;;;;;;2.60;2.40;;;;;;;13.29;100.00;100146.91;5060147;28;20036;-73
2021/05/25 03:48:21;;;;;;;3.10;2.55;;;;;;;13.42;100.00;100150.78;5056862;28;20064;-73
2021/05/25 03:50:46;;;;;;;6.63;2.78;;;;;;;13.52;100.00;100160.84;5047927;28;20024;-73
2021/05/25 03:53:11;;;;;;;2.42;2.22;;;;;;;13.09;100.00;100160.03;5061698;28;20397;-73
2021/05/25 04:00:59;;;;;;;2.40;2.20;;;;;;;13.55;100.00;100151.94;5061370;28;20039;-73
2021/05/25 04:03:25;;;;;;;3.47;2.40;;;;;;;13.43;100.00;100155.06;5062924;28;20033;-73
2021/05/25 04:05:51;;;;;;;2.70;2.17;;;;;;;13.47;100.00;100153.13;5057738;28;20041;-73
2021/05/25 04:08:17;;;;;;;2.55;2.25;;;;;;;13.38;100.00;100155.41;5059069;28;20052;-72
2021/05/25 04:10:43;;;;;;;2.40;2.20;;;;;;;13.30;100.00;100164.69;5062658;28;20172;-72
2021/05/25 04:13:08;;;;;;;3.70;2.50;;;;;;;13.40;100.00;100153.09;5056099;28;20088;-73
2021/05/25 04:15:34;;;;;;;3.78;2.17;;;;;;;13.51;100.00;100153.91;5047800;28;20043;-73
2021/05/25 04:18:01;;;;;;;2.83;1.98;;;;;;;13.70;100.00;100160.84;5052787;28;20044;-72
2021/05/25 04:20:27;;;;;;;2.67;2.28;;;;;;;13.63;100.00;100172.44;5054504;28;20020;-72
2021/05/25 04:22:52;;;;;;;3.03;2.13;;;;;;;13.54;100.00;100163.94;5052977;28;20063;-73
2021/05/25 04:25:18;;;;;;;3.97;2.58;;;;;;;13.55;100.00;100165.47;5055011;28;20170;-72
2021/05/25 04:27:44;;;;;;;4.57;2.17;;;;;;;13.49;100.00;100173.19;5064057;28;20400;-72
2021/05/25 04:30:10;;;;;;;3.80;2.50;;;;;;;13.54;100.00;100172.84;5059764;28;20556;-72
2021/05/25 04:32:36;;;;;;;3.03;2.53;;;;;;;13.33;100.00;100182.84;5059194;28;20143;-72
2021/05/25 04:35:03;;;;;;;2.60;2.40;;;;;;;13.35;100.00;100167.81;5065539;28;20107;-72
2021/05/25 04:37:29;;;;;;;7.40;2.35;;;;;;;13.32;100.00;100181.28;5059723;28;20040;-72
2021/05/25 04:39:54;;;;;;;2.78;2.47;;;;;;;13.61;100.00;100182.88;5059200;28;20025;-72
2021/05/25 04:42:20;;;;;;;5.10;2.33;;;;;;;13.50;100.00;100184.81;5064645;28;20051;-73
2021/05/25 04:44:45;;;;;;;3.70;2.15;;;;;;;13.40;100.00;100186.34;5061584;28;20043;-73
2021/05/25 04:47:10;;;;;;;3.50;2.40;;;;;;;13.38;100.00;100194.06;5062691;28;20039;-73
2021/05/25 04:49:39;;;;;;;3.38;2.60;;;;;;;13.29;100.00;100190.19;5063880;28;20385;-73
2021/05/25 04:52:04;;;;;;;2.90;2.42;;;;;;;13.10;100.00;100194.03;5066542;28;20028;-73
2021/05/25 04:54:30;;;;;;;3.08;2.40;;;;;;;13.09;100.00;100194.38;5062242;28;20596;-73
2021/05/25 04:56:55;;;;;;;4.07;2.55;;;;;;;13.05;100.00;100190.91;5057170;28;20033;-73
2021/05/25 04:59:21;;;;;;;3.70;2.13;;;;;;;13.05;100.00;100197.09;5065516;28;20037;-73
2021/05/25 05:01:47;;;;;;;5.75;2.20;;;;;;;13.01;100.00;100203.59;5063205;28;20055;-73
2021/05/25 05:04:12;;;;;;;3.22;1.90;;;;;;;13.23;100.00;100207.94;5065660;28;20024;-73
2021/05/25 05:06:38;;;;;;;5.20;1.92;;;;;;;13.33;100.00;100201.78;5067029;28;20032;-73
2021/05/25 05:09:03;;;;;;;3.53;2.38;;;;;;;13.30;100.00;100205.25;5061474;28;20047;-73
2021/05/25 05:11:31;;;;;;;5.40;1.95;;;;;;;12.97;100.00;100202.84;5063695;28;20025;-73
2021/05/25 05:13:57;;;;;;;4.00;2.00;;;;;;;12.98;100.00;100207.84;5066124;28;20032;-72
2021/05/25 05:16:22;;;;;;;2.63;1.80;;;;;;;13.05;100.00;100205.19;5062380;28;20036;-73
2021/05/25 05:18:48;;;;;;;1.90;1.60;;;;;;;13.12;100.00;100212.56;5070824;28;20036;-72
2021/05/25 05:21:13;;;;;;;2.58;1.80;;;;;;;13.11;100.00;100214.47;5068532;28;20041;-73
2021/05/25 05:23:39;;;;;;;2.25;1.70;;;;;;;13.22;100.00;100217.22;5064746;28;20033;-73
2021/05/25 05:26:04;;;;;;;3.30;1.90;;;;;;;13.23;100.00;100213.34;5059805;28;20642;-72
2021/05/25 05:28:30;;;;;;;2.70;1.83;;;;;;;13.17;100.00;100221.06;5066402;28;20040;-73
2021/05/25 05:30:56;;;;;;;3.15;1.63;;;;;;;13.32;100.00;100219.16;5058393;28;20043;-73
2021/05/25 05:33:21;;;;;;;1.77;1.42;;;;;;;13.04;100.00;100217.19;5057667;28;20059;-74
2021/05/25 05:35:47;;;;;;;1.70;1.60;;;;;;;13.01;100.00;100219.81;5067658;28;20041;-73
2021/05/25 05:38:13;;;;;;;2.17;1.80;;;;;;;13.04;100.00;100213.69;5063053;28;20025;-72
2021/05/25 05:40:38;;;;;;;3.20;1.90;;;;;;;13.17;100.00;100214.88;5061555;28;20055;-72
2021/05/25 05:43:04;;;;;;;2.00;1.77;;;;;;;13.45;100.00;100210.28;5067324;28;20028;-73
2021/05/25 05:45:30;;;;;;;2.78;2.17;;;;;;;13.48;100.00;100214.94;5060848;28;20423;-73
2021/05/25 05:47:55;;;;;;;2.42;2.20;;;;;;;13.23;100.00;100221.47;5053388;28;20386;-73
2021/05/25 05:50:21;;;;;;;3.70;2.42;;;;;;;13.34;100.00;100209.50;5062082;28;20429;-73
2021/05/25 05:52:47;;;;;;;3.55;2.60;;;;;;;13.36;100.00;100215.31;5058101;28;20382;-73
2021/05/25 05:55:12;;;;;;;3.60;2.78;;;;;;;13.35;100.00;100202.97;5053673;28;20037;-72
2021/05/25 05:57:38;;;;;;;4.13;3.38;;;;;;;13.49;100.00;100205.66;5061963;28;20112;-72
2021/05/25 06:00:07;;;;;;;4.20;3.60;;;;;;;13.69;99.32;100202.59;5062233;28;20028;-73
2021/05/25 06:02:37;;;;;;;7.43;4.28;;;;;;;13.78;98.98;100209.16;5065975;28;20067;-73
2021/05/25 06:05:03;;;;;;;5.70;4.70;;;;;;;13.83;97.51;100203.38;5064199;28;20527;-72
2021/05/25 06:07:29;;;;;;;4.95;4.22;;;;;;;13.79;97.90;100202.59;5061595;28;20071;-72
2021/05/25 06:09:56;;;;;;;6.60;4.80;;;;;;;13.73;96.69;100197.94;5059276;28;20021;-73
2021/05/25 06:12:21;;;;;;;5.68;4.95;;;;;;;13.49;97.08;100194.84;5066445;28;20039;-72
2021/05/25 06:14:47;;;;;;;7.78;5.03;;;;;;;13.43;97.61;100206.44;5063135;28;20397;-72
2021/05/25 06:17:12;;;;;;;7.53;5.70;;;;;;;13.27;97.68;100204.09;5065625;28;20032;-72
2021/05/25 06:19:38;;;;;;;8.15;5.53;;;;;;;13.33;98.63;100207.97;5066430;28;20403;-73
2021/05/25 06:22:03;;;;;;;6.60;5.47;;;;;;;13.35;98.45;100207.59;5065461;28;20467;-73
2021/05/25 06:24:29;;;;;;;7.75;5.65;;;;;;;12.93;100.00;100202.06;5069001;28;20111;-72
2021/05/25 06:26:54;;;;;;;7.28;5.72;;;;;;;12.98;100.00;100215.19;5067892;28;20059;-72
2021/05/25 06:29:20;;;;;;;5.70;4.90;;;;;;;13.28;100.00;100204.84;5068721;28;20501;-73
2021/05/25 06:31:45;;;;;;;7.10;5.65;;;;;;;13.12;99.85;100212.56;5066713;28;20527;-73
2021/05/25 06:34:11;;;;;;;6.90;5.35;;;;;;;13.24;100.00;100212.22;5068673;28;20234;-72
2021/05/25 06:36:36;;;;;;;6.80;5.32;;;;;;;13.34;100.00;100211.44;5068309;28;20024;-72
2021/05/25 06:39:02;;;;;;;6.28;5.57;;;;;;;13.54;100.00;100212.63;5065479;28;20414;-73
2021/05/25 06:41:28;;;;;;;6.22;5.20;;;;;;;13.76;99.29;100211.50;5064442;28;20081;-72
2021/05/25 06:43:53;;;;;;;4.97;4.47;;;;;;;14.01;98.30;100217.69;5055110;28;20115;-73
2021/05/25 06:46:19;;;;;;;5.22;3.88;;;;;;;14.30;94.69;100223.84;5060002;28;20032;-73
2021/05/25 06:48:44;;;;;;;3.75;3.20;;;;;;;14.05;93.65;100221.13;5065500;28;20063;-72
2021/05/25 06:51:10;;;;;;;4.20;3.47;;;;;;;13.81;94.57;100227.34;5054240;28;20032;-72
2021/05/25 06:53:36;;;;;;;4.32;3.42;;;;;;;13.83;94.68;100222.31;5055978;28;20102;-72
2021/05/25 06:56:02;;;;;;;3.50;3.20;;;;;;;14.30;94.09;100242.81;5075613;28;20173;-73
2021/05/25 06:58:27;;;;;;;3.78;3.40;;;;;;;14.32;90.85;100241.25;5057660;28;20389;-72
2021/05/25 07:00:53;;;;;;;5.03;3.47;;;;;;;14.36;91.33;100233.13;5061491;28;20121;-73
2021/05/25 07:03:18;;;;;;;3.55;3.00;;;;;;;14.29;90.88;100247.47;5055195;28;20074;-72
2021/05/25 07:05:44;;;;;;;3.50;3.20;;;;;;;14.20;90.82;100238.16;5067568;28;20032;-73
2021/05/25 07:08:09;;;;;;;3.45;2.90;;;;;;;14.18;90.98;100246.69;5058296;28;20041;-72
2021/05/25 07:10:35;;;;;;;3.60;3.30;;;;;;;14.01;92.42;100247.47;5056036;28;20040;-72
2021/05/25 07:13:00;;;;;;;4.57;3.50;;;;;;;13.81;93.18;100249.00;5057256;28;20455;-72
2021/05/25 07:15:26;;;;;;;6.88;3.65;;;;;;;13.80;93.00;100252.09;5056312;28;20082;-73
2021/05/25 07:17:56;;;;;;;3.92;3.53;;;;;;;13.79;92.73;100251.31;5059310;28;20025;-72
2021/05/25 07:20:22;;;;;;;8.02;3.55;;;;;;;13.93;91.51;100251.34;5053602;28;20060;-72
2021/05/25 07:22:51;;;;;;;4.35;3.95;;;;;;;13.72;91.08;100261.38;5058585;28;20086;-72
2021/05/25 07:25:18;;;;;;;4.70;4.30;;;;;;;13.67;92.72;100257.09;5068479;28;20035;-72
2021/05/25 07:27:43;;;;;;;4.40;3.85;;;;;;;13.77;93.94;100258.25;5069898;28;20036;-72
2021/05/25 07:30:10;;;;;;;5.28;4.25;;;;;;;14.10;92.18;100255.19;5064783;28;20041;-72
2021/05/25 07:32:35;;;;;;;4.80;3.70;;;;;;;14.24;88.76;100258.66;5065006;28;20082;-72
2021/05/25 07:35:01;;;;;;;4.10;3.45;;;;;;;14.04;89.38;100257.50;5069500;28;20028;-73
2021/05/25 07:37:26;;;;;;;3.58;3.28;;;;;;;14.05;88.87;100266.41;5062422;28;20120;-73
2021/05/25 07:39:52;;;;;;;4.32;3.25;;;;;;;13.99;89.66;100263.31;5064697;28;20048;-74
2021/05/25 07:42:17;;;;;;;3.60;3.28;;;;;;;14.11;89.96;100257.50;5061761;28;20048;-73
2021/05/25 07:44:43;;;;;;;5.13;3.40;;;;;;;14.01;90.71;100263.72;5068900;28;20032;-73
2021/05/25 07:47:08;;;;;;;6.70;3.42;;;;;;;13.83;90.73;100264.84;5063391;28;20056;-73
2021/05/25 07:49:35;;;;;;;3.25;2.90;;;;;;;14.33;88.29;100259.06;5069868;28;20081;-73
2021/05/25 07:52:00;;;;;;;4.38;3.20;;;;;;;14.56;86.18;100265.97;5065522;28;20449;-73
2021/05/25 07:54:26;;;;;;;3.60;3.25;;;;;;;14.52;87.15;100257.09;5069909;28;20088;-73
2021/05/25 07:56:52;;;;;;;3.95;3.38;;;;;;;14.99;87.37;100259.25;5058788;28;20109;-73
2021/05/25 07:59:17;;;;;;;2.60;2.40;;;;;;;14.94;84.40;100260.44;5070032;28;20385;-74
2021/05/25 08:01:43;;;;;;;4.18;2.70;;;;;;;15.15;85.09;100263.09;5061829;28;20032;-73
2021/05/25 08:04:08;;;;;;;3.13;2.60;;;;;;;15.15;82.27;100275.88;5069053;28;20028;-73
2021/05/25 08:06:37;;;;;;;2.78;2.40;;;;;;;15.09;81.45;100261.94;5069082;28;20071;-73
2021/05/25 08:09:04;;;;;;;3.42;2.50;;;;;;;15.01;82.19;100268.56;5061520;28;20032;-73
2021/05/25 08:11:29;;;;;;;5.05;2.45;;;;;;;14.69;82.78;100281.44;5062210;28;20109;-73
2021/05/25 08:13:55;;;;;;;3.72;2.60;;;;;;;14.36;82.49;100274.53;5065256;28;20476;-72
2021/05/25 08:16:25;;;;;;;2.95;2.60;;;;;;;14.08;84.02;100279.94;5060835;28;20132;-73
2021/05/25 08:21:19;;;;;;;3.83;3.30;;;;;;;13.96;86.87;100285.75;5053090;28;20040;-72
2021/05/25 08:23:45;;;;;;;4.93;3.33;;;;;;;13.73;89.76;100296.16;5066726;28;20036;-73
2021/05/25 08:26:11;;;;;;;4.60;3.20;;;;;;;13.90;89.19;100302.78;5060814;28;20028;-73
2021/05/25 08:28:37;;;;;;;4.93;3.00;;;;;;;13.84;91.69;100304.31;5065741;28;20563;-73
2021/05/25 08:31:04;;;;;;;7.18;4.00;;;;;;;13.78;91.94;100306.59;5065755;28;20128;-73
2021/05/25 08:33:30;;;;;;;4.45;3.90;;;;;;;13.94;92.18;100317.84;5065539;28;20033;-73
2021/05/25 08:35:55;;;;;;;5.55;3.70;;;;;;;14.04;90.37;100306.25;5062785;28;20077;-73
2021/05/25 08:38:22;;;;;;;7.68;3.22;;;;;;;13.89;90.77;100312.81;5067447;28;20480;-73
2021/05/25 08:40:50;;;;;;;4.60;3.00;;;;;;;13.47;92.37;100318.91;5059110;28;20067;-74
2021/05/25 08:43:16;;;;;;;4.80;3.35;;;;;;;13.31;95.38;100326.59;5061978;28;20032;-73
2021/05/25 08:45:42;;;;;;;7.18;2.88;;;;;;;13.15;97.09;100326.13;5069122;28;20026;-73
2021/05/25 08:48:09;;;;;;;6.07;2.85;;;;;;;13.02;98.10;100332.22;5063660;28;20407;-73
2021/05/25 08:50:35;;;;;;;6.20;2.80;;;;;;;13.09;97.74;100341.16;5064219;28;20036;-74
2021/05/25 08:53:02;;;;;;;3.50;2.53;;;;;;;12.87;98.69;100336.78;5059269;28;20040;-73
2021/05/25 08:55:29;;;;;;;3.20;2.65;;;;;;;12.59;100.00;100336.59;5067480;28;20092;-73
2021/05/25 08:57:56;;;;;;;4.35;2.72;;;;;;;12.60;100.00;100316.53;5071356;28;20055;-73
2021/05/25 09:00:22;;;;;;;5.70;3.13;;;;;;;12.54;100.00;100321.50;5056772;28;20149;-73
2021/05/25 09:02:48;;;;;;;5.85;3.50;;;;;;;12.66;100.00;100326.59;5068700;28;20021;-73
2021/05/25 09:05:20;;;;;;;5.10;3.03;;;;;;;12.86;100.00;100313.59;5066053;28;20055;-73
2021/05/25 09:07:49;;;;;;;4.07;3.60;;;;;;;13.24;100.00;100323.84;5061548;28;20036;-73
2021/05/25 09:10:34;;;;;;;5.75;3.30;;;;;;;13.43;100.00;100314.66;5061030;28;20025;-73
2021/05/25 09:13:01;;;;;;;5.75;3.75;;;;;;;13.54;100.00;100323.56;5069262;28;20564;-73
2021/05/25 09:15:33;;;;;;;5.63;3.90;;;;;;;13.35;100.00;100310.38;5069515;28;20111;-73
2021/05/25 09:18:06;;;;;;;5.28;3.85;;;;;;;13.45;100.00;100321.22;5065353;28;20103;-73
2021/05/25 09:20:52;;;;;;;6.45;4.07;;;;;;;13.76;100.00;100317.06;5060728;28;20029;-73
2021/05/25 09:23:18;;;;;;;6.57;3.70;;;;;;;13.91;99.65;100321.31;5066998;28;20527;-74
2021/05/25 09:26:03;;;;;;;7.93;4.22;;;;;;;14.19;99.16;100307.00;5064759;28;20083;-74
2021/05/25 09:28:29;;;;;;;5.18;4.13;;;;;;;14.23;99.50;100307.78;5065500;28;20035;-73
2021/05/25 09:30:54;;;;;;;6.40;4.55;;;;;;;14.43;99.31;100307.06;5064931;28;20024;-73
2021/05/25 09:33:21;;;;;;;5.72;4.30;;;;;;;15.07;98.29;100306.91;5068844;28;20032;-74
2021/05/25 09:35:48;;;;;;;6.45;4.65;;;;;;;15.50;97.26;100312.94;5073112;28;20097;-74
2021/05/25 09:38:26;;;;;;;7.43;4.72;;;;;;;15.43;95.77;100310.25;5096942;23;20055;-74
2021/05/25 09:40:52;;;;;;;9.95;4.10;;;;;;;15.57;93.54;100302.81;5087584;28;20039;-74
2021/05/25 09:43:27;;;;;;;6.00;3.90;;;;;;;15.39;92.48;100305.59;5091063;28;20074;-74
2021/05/25 09:46:02;;;;;;;5.93;3.85;;;;;;;15.28;92.77;100302.16;5091380;28;20054;-74
2021/05/25 09:48:30;;;;;;;6.38;4.10;;;;;;;15.31;92.34;100300.59;5088537;28;20495;-74
2021/05/25 09:50:57;;;;;;;5.82;4.25;;;;;;;15.70;92.28;100293.03;5070020;28;20044;-74
2021/05/25 09:53:25;;;;;;;6.63;4.13;;;;;;;16.11;87.99;100307.47;5066382;28;20025;-74
2021/05/25 09:55:50;;;;;;;6.22;3.80;;;;;;;16.47;86.75;100296.31;5079651;28;20031;-74
2021/05/25 09:58:16;;;;;;;6.30;3.50;;;;;;;16.97;84.80;100297.34;5072668;28;20016;-74
2021/05/25 10:00:44;;;;;;;5.63;3.58;;;;;;;17.53;83.97;100293.16;5055374;28;20207;-74
2021/05/25 10:03:18;;;;;;;4.95;2.08;;;;;;;17.56;75.23;100297.78;5054687;28;20046;-74
2021/05/25 10:05:50;;;;;;;3.90;1.90;;;;;;;17.76;76.28;100285.84;5056310;28;20029;-74
2021/05/25 10:08:17;;;;;;;3.08;2.00;;;;;;;18.06;73.90;100287.69;5072703;28;20059;-74
2021/05/25 10:10:44;;;;;;;1.98;1.70;;;;;;;18.43;70.84;100289.44;5078676;28;20051;-75
2021/05/25 10:13:11;;;;;;;2.65;1.50;;;;;;;18.38;70.57;100293.38;5088019;28;20039;-74
2021/05/25 10:15:37;;;;;;;3.47;1.77;;;;;;;18.30;71.52;100291.97;5075225;28;20071;-74
2021/05/25 10:20:30;;;;;;;1.88;1.15;;;;;;;18.03;66.37;100292.03;5073732;28;20086;-75
2021/05/25 10:22:55;;;;;;;3.13;1.60;;;;;;;18.12;68.58;100288.00;5070644;28;20036;-75
2021/05/25 10:25:22;;;;;;;3.15;1.30;;;;;;;18.22;68.41;100290.53;5061423;28;20036;-74
2021/05/25 10:27:49;;;;;;;7.90;2.13;;;;;;;18.62;66.09;100281.28;5057009;28;20116;-75
2021/05/25 10:30:26;;;;;;;3.70;1.15;;;;;;;18.28;65.27;100277.97;5076014;28;20044;-75
2021/05/25 10:33:12;;;;;;;1.63;1.13;;;;;;;17.50;67.19;100281.13;5069819;28;20024;-74
2021/05/25 10:35:47;;;;;;;2.83;1.20;;;;;;;17.49;67.46;100276.09;5068824;28;20036;-74
2021/05/25 10:38:12;;;;;;;2.45;1.00;;;;;;;17.45;69.28;100280.81;5071070;28;20021;-74
2021/05/25 10:40:46;;;;;;;3.40;1.10;;;;;;;17.51;68.71;100287.38;5071311;28;20098;-75
2021/05/25 10:43:30;;;;;;;3.00;1.30;;;;;;;17.40;69.46;100290.19;5071554;28;20036;-74
2021/05/25 10:46:11;;;;;;;3.75;1.50;;;;;;;17.82;66.72;100289.63;5061410;28;20389;-74
2021/05/25 10:49:16;;;;;;;4.55;1.17;;;;;;;18.33;65.17;100279.47;5057856;28;20424;-75
2021/05/25 10:51:48;;;;;;;3.78;1.48;;;;;;;18.97;65.27;100270.88;5059931;28;20078;-75
2021/05/25 10:54:45;;;;;;;2.35;1.30;;;;;;;19.61;60.82;100274.56;5058152;28;20036;-74
2021/05/25 10:57:40;;;;;;;5.25;1.35;;;;;;;19.37;59.30;100286.84;5068077;28;20044;-74
2021/05/25 11:00:26;;;;;;;5.65;1.10;;;;;;;18.96;58.29;100275.56;5059960;28;20033;-74
2021/05/25 11:03:03;;;;;;;3.10;1.00;;;;;;;18.69;60.18;100280.38;5066256;28;20028;-74
2021/05/25 11:05:34;;;;;;;4.93;1.00;;;;;;;18.65;61.40;100280.47;5055653;28;20033;-74
2021/05/25 11:08:08;;;;;;;1.52;0.70;;;;;;;18.19;63.04;100268.78;5057616;28;20147;-74
2021/05/25 11:10:37;;;;;;;4.20;1.23;;;;;;;18.18;61.27;100280.88;5064603;28;20374;-74
2021/05/25 11:13:18;;;;;;;4.05;1.33;;;;;;;17.72;60.75;100296.00;5072543;28;20038;-74
2021/05/25 11:16:22;;;;;;;2.45;0.95;;;;;;;17.66;57.40;100300.38;5063488;28;20064;-74
2021/05/25 11:22:22;;;;;;;2.72;0.80;;;;;;;17.89;56.13;100291.47;5054112;28;20045;-74
2021/05/25 11:24:33;;;;;;;2.97;0.73;;;;;;;17.74;54.25;100296.38;5050473;28;20106;-74
2021/05/25 11:27:09;;;;;;;1.85;0.68;;;;;;;17.68;54.75;100291.78;5053344;28;20033;-74
2021/05/25 11:29:57;;;;;;;2.58;0.90;;;;;;;17.65;57.51;100296.09;5054219;28;20073;-73
2021/05/25 11:32:25;;;;;;;3.83;0.82;;;;;;;17.87;59.00;100302.00;5056303;28;20051;-74
2021/05/25 11:34:56;;;;;;;2.30;0.90;;;;;;;17.69;61.81;100291.38;5056762;28;20033;-74